Warm Springs, Virginia
Current Conditions -  °F | °C
As of 9:35 AM on Friday 24 Oct 2014 (Local Time) from KHSP Reporting Station
Clear Clear  
Wind Chill:   Ceiling: Unl
Heat Index:   Visibility: 10mi
Dew Point:   Wind: 14mph
Humidity: 86%   Direction: 300°WNW
Pressure: 30.04"   Gusts: NA
Location:  38.05°N, 79.79°W
Report Text: KHSP 241335Z AUTO 30012KT 10SM CLR 06/03 A3004 RMK AO2 T00550033
Loading
Personal Weather Stations






























Interactive Weather Map
Tropical Storm Tracking
New forecast layout! Learn more

10-Day Weather Forecast

Advertisements
Track Severe Weather on mobile